createdAt,value
2023-01-23T00:01:20.708Z,11.60
2023-01-23T00:03:47.802Z,11.50
2023-01-23T00:06:16.663Z,11.50
2023-01-23T00:08:45.058Z,11.50
2023-01-23T00:11:15.336Z,11.60
2023-01-23T00:13:42.270Z,11.60
2023-01-23T00:16:16.273Z,11.60
2023-01-23T00:18:43.408Z,11.60
2023-01-23T00:21:12.880Z,11.60
2023-01-23T00:23:44.045Z,11.50
2023-01-23T00:26:15.747Z,11.40
2023-01-23T00:28:45.738Z,11.40
2023-01-23T00:31:16.254Z,11.50
2023-01-23T00:33:44.540Z,11.60
2023-01-23T00:36:12.505Z,11.60
2023-01-23T00:38:40.225Z,11.60
2023-01-23T00:41:08.013Z,11.70
2023-01-23T00:43:35.060Z,11.70
2023-01-23T00:46:02.210Z,11.80
2023-01-23T00:48:29.211Z,11.80
2023-01-23T00:50:56.648Z,11.80
2023-01-23T00:53:24.381Z,11.80
2023-01-23T00:55:51.501Z,11.90
2023-01-23T00:58:18.800Z,11.90
2023-01-23T01:00:46.007Z,11.90
2023-01-23T01:03:13.281Z,11.90
2023-01-23T01:05:42.011Z,11.80
2023-01-23T01:08:09.530Z,11.70
2023-01-23T01:10:37.340Z,11.60
2023-01-23T01:13:05.524Z,11.60
2023-01-23T01:15:32.644Z,11.50
2023-01-23T01:17:59.684Z,11.40
2023-01-23T01:20:28.520Z,11.40
2023-01-23T01:22:57.241Z,11.30
2023-01-23T01:25:24.334Z,11.20
2023-01-23T01:27:51.331Z,11.10
2023-01-23T01:30:19.291Z,11.20
2023-01-23T01:32:47.750Z,11.40
2023-01-23T01:35:14.938Z,11.30
2023-01-23T01:37:42.285Z,11.20
2023-01-23T01:40:15.168Z,11.20
2023-01-23T01:42:45.433Z,11.20
2023-01-23T01:45:50.028Z,11.30
2023-01-23T01:48:18.907Z,11.40
2023-01-23T01:50:46.099Z,11.40
2023-01-23T01:53:13.736Z,11.30
2023-01-23T01:55:40.715Z,11.40
2023-01-23T01:58:08.851Z,11.30
2023-01-23T02:00:36.340Z,11.40
2023-01-23T02:03:04.007Z,11.30
2023-01-23T02:05:47.472Z,11.40
2023-01-23T02:08:14.820Z,11.50
2023-01-23T02:10:44.373Z,11.50
2023-01-23T02:13:39.921Z,11.50
2023-01-23T02:16:11.473Z,11.40
2023-01-23T02:18:45.577Z,11.40
2023-01-23T02:21:15.369Z,11.40
2023-01-23T02:24:04.565Z,11.60
2023-01-23T02:26:42.763Z,11.60
2023-01-23T02:29:11.870Z,11.80
2023-01-23T02:31:47.100Z,11.80
2023-01-23T02:34:14.809Z,11.90
2023-01-23T02:36:47.420Z,11.90
2023-01-23T02:39:17.763Z,11.90
2023-01-23T02:41:53.035Z,11.90
2023-01-23T02:44:32.280Z,12.00
2023-01-23T02:47:05.516Z,12.10
2023-01-23T02:49:32.669Z,12.00
2023-01-23T02:52:00.141Z,12.10
2023-01-23T02:54:27.250Z,12.10
2023-01-23T02:56:54.264Z,12.10
2023-01-23T02:59:41.556Z,12.10
2023-01-23T03:02:09.398Z,12.10
2023-01-23T03:04:36.411Z,12.10
2023-01-23T03:07:03.488Z,12.20
2023-01-23T03:09:30.579Z,12.20
2023-01-23T03:11:57.570Z,12.20
2023-01-23T03:14:25.645Z,12.20
2023-01-23T03:16:55.187Z,12.20
2023-01-23T03:19:29.078Z,12.10
2023-01-23T03:21:56.246Z,12.10
2023-01-23T03:24:23.304Z,12.10
2023-01-23T03:26:51.472Z,12.10
2023-01-23T03:29:42.447Z,12.00
2023-01-23T03:32:12.417Z,12.00
2023-01-23T03:34:41.548Z,12.00
2023-01-23T03:37:10.585Z,12.10
2023-01-23T03:39:57.585Z,12.10
2023-01-23T03:42:25.627Z,12.10
2023-01-23T03:44:55.203Z,12.10
2023-01-23T03:47:26.485Z,12.10
2023-01-23T03:49:55.221Z,12.10
2023-01-23T03:52:22.454Z,12.10
2023-01-23T03:54:49.836Z,12.00
2023-01-23T03:57:17.050Z,12.00
2023-01-23T04:00:05.116Z,12.00
2023-01-23T04:02:41.533Z,12.00
2023-01-23T04:05:11.076Z,12.10
2023-01-23T04:07:38.866Z,12.00
2023-01-23T04:10:06.204Z,12.00
2023-01-23T04:12:33.263Z,12.00
2023-01-23T04:15:00.424Z,12.10
2023-01-23T04:17:28.424Z,12.00
2023-01-23T04:19:55.432Z,12.00
2023-01-23T04:22:22.400Z,12.00
2023-01-23T04:24:50.938Z,12.00
2023-01-23T04:27:17.943Z,12.00
2023-01-23T04:29:47.862Z,12.00
2023-01-23T04:32:15.042Z,12.00
2023-01-23T04:34:45.909Z,12.00
2023-01-23T04:37:13.016Z,12.00
2023-01-23T04:39:41.187Z,12.00
2023-01-23T04:42:08.732Z,11.90
2023-01-23T04:44:50.816Z,11.90
2023-01-23T04:47:41.081Z,11.90
2023-01-23T04:50:12.648Z,11.80
2023-01-23T04:52:42.845Z,11.80
2023-01-23T04:55:10.189Z,11.80
2023-01-23T04:57:37.188Z,11.80
2023-01-23T05:00:13.835Z,11.80
2023-01-23T05:02:40.978Z,11.80
2023-01-23T05:05:09.046Z,11.90
2023-01-23T05:07:36.023Z,12.00
2023-01-23T05:10:07.340Z,12.10
2023-01-23T05:12:34.656Z,12.20
2023-01-23T05:15:03.430Z,12.20
2023-01-23T05:17:31.460Z,12.20
2023-01-23T05:19:59.209Z,12.20
2023-01-23T05:22:26.283Z,12.10
2023-01-23T05:24:54.566Z,12.10
2023-01-23T05:27:22.283Z,12.10
2023-01-23T05:29:50.625Z,12.10
2023-01-23T05:32:24.315Z,12.10
2023-01-23T05:35:08.200Z,12.10
2023-01-23T05:37:37.234Z,12.10
2023-01-23T05:40:13.827Z,12.00
2023-01-23T05:43:06.715Z,12.00
2023-01-23T05:45:51.952Z,11.90
2023-01-23T05:48:27.124Z,11.90
2023-01-23T05:50:54.070Z,11.90
2023-01-23T05:53:21.885Z,12.00
2023-01-23T05:55:48.934Z,11.90
2023-01-23T05:58:16.407Z,11.90
2023-01-23T06:01:04.277Z,12.00
2023-01-23T06:03:49.754Z,12.00
2023-01-23T06:06:38.476Z,11.90
2023-01-23T06:09:05.448Z,12.00
2023-01-23T06:11:32.455Z,12.00
2023-01-23T06:13:59.408Z,11.80
2023-01-23T06:16:26.603Z,11.60
2023-01-23T06:18:53.797Z,11.50
2023-01-23T06:21:21.371Z,11.50
2023-01-23T06:23:48.410Z,11.50
2023-01-23T06:26:16.318Z,11.50
2023-01-23T06:28:44.424Z,11.40
2023-01-23T06:31:12.177Z,11.40
2023-01-23T06:34:08.917Z,11.50
2023-01-23T06:36:43.023Z,11.60
2023-01-23T06:39:13.699Z,11.60
2023-01-23T06:41:42.682Z,11.70
2023-01-23T06:44:12.594Z,11.70
2023-01-23T06:46:40.271Z,11.70
2023-01-23T06:49:07.417Z,11.50
2023-01-23T06:51:37.096Z,11.40
2023-01-23T06:54:06.598Z,11.40
2023-01-23T06:56:34.049Z,11.60
2023-01-23T06:59:04.749Z,11.60
2023-01-23T07:01:33.627Z,11.70
2023-01-23T07:04:12.422Z,11.70
2023-01-23T07:06:41.070Z,11.70
2023-01-23T07:09:08.846Z,11.70
2023-01-23T07:11:37.389Z,11.70
2023-01-23T07:14:06.214Z,11.70
2023-01-23T07:16:35.995Z,11.80
2023-01-23T07:19:05.335Z,11.90
2023-01-23T07:21:34.280Z,11.90
2023-01-23T07:24:01.272Z,12.00
2023-01-23T07:26:28.309Z,12.10
2023-01-23T07:28:55.441Z,12.00
2023-01-23T07:31:22.575Z,12.00
2023-01-23T07:33:49.841Z,12.10
2023-01-23T07:36:18.505Z,12.20
2023-01-23T07:38:45.480Z,12.20
2023-01-23T07:41:12.604Z,12.30
2023-01-23T07:43:39.550Z,12.20
2023-01-23T07:46:06.800Z,12.30
2023-01-23T07:48:33.825Z,12.30
2023-01-23T07:51:03.003Z,12.30
2023-01-23T07:53:30.225Z,12.30
2023-01-23T07:55:57.618Z,12.30
2023-01-23T07:58:24.741Z,12.30
2023-01-23T08:00:51.767Z,12.40
2023-01-23T08:03:20.799Z,12.40
2023-01-23T08:05:50.999Z,12.30
2023-01-23T08:08:18.017Z,12.30
2023-01-23T08:10:45.119Z,12.30
2023-01-23T08:13:12.210Z,12.30
2023-01-23T08:15:39.178Z,12.30
2023-01-23T08:18:06.354Z,12.30
2023-01-23T08:20:33.594Z,12.30
2023-01-23T08:23:02.218Z,12.20
2023-01-23T08:25:29.856Z,12.20
2023-01-23T08:27:57.182Z,12.10
2023-01-23T08:30:24.201Z,12.10
2023-01-23T08:32:51.231Z,12.20
2023-01-23T08:35:18.356Z,12.30
2023-01-23T08:37:45.339Z,12.30
2023-01-23T08:40:12.697Z,12.30
2023-01-23T08:42:39.789Z,12.10
2023-01-23T08:45:07.562Z,12.00
2023-01-23T08:47:36.996Z,11.80
2023-01-23T08:50:08.033Z,11.70
2023-01-23T08:52:35.363Z,11.70
2023-01-23T08:55:02.696Z,11.70
2023-01-23T08:57:29.771Z,11.60
2023-01-23T08:59:56.882Z,11.60
2023-01-23T09:02:24.165Z,11.60
2023-01-23T09:04:51.210Z,11.60
2023-01-23T09:07:18.342Z,11.60
2023-01-23T09:09:45.412Z,11.60
2023-01-23T09:12:12.412Z,11.80
2023-01-23T09:14:39.538Z,11.80
2023-01-23T09:17:06.649Z,11.90
2023-01-23T09:19:34.335Z,11.90
2023-01-23T09:22:02.354Z,11.90
2023-01-23T09:24:29.440Z,12.00
2023-01-23T09:26:56.586Z,12.00
2023-01-23T09:29:23.617Z,11.90
2023-01-23T09:31:50.564Z,12.00
2023-01-23T09:34:17.642Z,12.10
2023-01-23T09:36:44.783Z,12.20
2023-01-23T09:39:12.512Z,12.20
2023-01-23T09:41:40.683Z,12.20
2023-01-23T09:44:52.351Z,12.30
2023-01-23T09:47:26.361Z,12.20
2023-01-23T09:50:00.441Z,12.20
2023-01-23T09:52:35.753Z,12.20
2023-01-23T09:55:15.316Z,12.10
2023-01-23T09:57:57.340Z,12.10
2023-01-23T10:00:26.142Z,12.10
2023-01-23T10:02:53.744Z,12.10
2023-01-23T10:05:39.588Z,12.10
2023-01-23T10:08:34.165Z,11.90
2023-01-23T10:11:12.694Z,12.00
2023-01-23T10:13:42.675Z,12.00
2023-01-23T10:16:15.871Z,11.90
2023-01-23T10:19:14.202Z,12.00
2023-01-23T10:21:49.910Z,12.00
2023-01-23T10:24:23.796Z,12.00
2023-01-23T10:26:52.160Z,12.10
2023-01-23T10:29:38.260Z,12.20
2023-01-23T10:32:25.426Z,12.20
2023-01-23T10:34:58.855Z,12.30
2023-01-23T10:37:43.756Z,12.30
2023-01-23T10:40:17.610Z,12.30
2023-01-23T10:42:44.764Z,12.30
2023-01-23T10:45:19.487Z,12.40
2023-01-23T10:47:54.580Z,12.40
2023-01-23T10:50:39.614Z,12.50
2023-01-23T10:53:09.123Z,12.40
2023-01-23T10:55:36.118Z,12.40
2023-01-23T10:58:03.281Z,12.50
2023-01-23T11:00:45.820Z,12.50
2023-01-23T11:03:22.048Z,12.50
2023-01-23T11:06:20.916Z,12.60
2023-01-23T11:09:00.442Z,12.50
2023-01-23T11:11:29.799Z,12.60
2023-01-23T11:14:10.900Z,12.60
2023-01-23T11:16:38.654Z,12.70
2023-01-23T11:19:08.392Z,12.70
2023-01-23T11:21:50.261Z,12.70
2023-01-23T11:24:30.589Z,12.60
2023-01-23T11:27:17.023Z,12.60
2023-01-23T11:29:49.720Z,12.60
2023-01-23T11:32:17.438Z,12.60
2023-01-23T11:34:50.781Z,12.60
2023-01-23T11:37:21.417Z,12.70
2023-01-23T11:39:58.265Z,12.60
2023-01-23T11:42:28.611Z,12.60
2023-01-23T11:44:59.393Z,12.70
2023-01-23T11:48:20.794Z,12.70
2023-01-23T11:50:55.576Z,12.60
2023-01-23T11:53:44.358Z,12.70
2023-01-23T11:56:53.731Z,12.60
2023-01-23T11:59:25.278Z,12.60
2023-01-23T12:02:13.128Z,12.60
2023-01-23T12:04:55.330Z,12.70
2023-01-23T12:07:24.614Z,12.70
2023-01-23T12:10:06.335Z,12.70
2023-01-23T12:12:41.852Z,12.60
2023-01-23T12:15:33.138Z,12.50
2023-01-23T12:18:41.566Z,12.40
2023-01-23T12:21:11.486Z,12.40
2023-01-23T12:24:12.194Z,12.50
2023-01-23T12:26:53.527Z,12.40
2023-01-23T12:30:04.959Z,12.40
2023-01-23T12:32:40.282Z,12.40
2023-01-23T12:35:44.971Z,12.30
2023-01-23T12:38:31.643Z,12.10
2023-01-23T12:41:09.790Z,12.10
2023-01-23T12:43:59.535Z,12.10
2023-01-23T12:46:36.742Z,11.80
2023-01-23T12:49:20.028Z,11.80
2023-01-23T12:51:54.353Z,11.80
2023-01-23T12:54:36.927Z,11.80
2023-01-23T12:57:05.599Z,11.80
2023-01-23T13:00:03.947Z,12.00
2023-01-23T13:03:22.790Z,12.10
2023-01-23T13:05:55.652Z,12.10
2023-01-23T13:08:28.996Z,12.20
2023-01-23T13:11:29.097Z,12.20
2023-01-23T13:13:56.512Z,12.30
2023-01-23T13:16:31.017Z,12.30
2023-01-23T13:19:33.582Z,12.30
2023-01-23T13:22:18.874Z,12.30
2023-01-23T13:25:10.185Z,12.40
2023-01-23T13:27:51.494Z,12.40
2023-01-23T13:30:24.213Z,12.40
2023-01-23T13:32:53.216Z,12.30
2023-01-23T13:35:47.905Z,12.10
2023-01-23T13:38:29.599Z,12.10
2023-01-23T13:41:05.402Z,12.10
2023-01-23T13:43:50.576Z,12.20
2023-01-23T13:46:36.254Z,12.20
2023-01-23T14:21:57.933Z,12.30
2023-01-23T14:24:42.673Z,12.30
2023-01-23T14:27:21.584Z,12.30
2023-01-23T14:30:01.333Z,12.40
2023-01-23T14:32:33.153Z,12.40
2023-01-23T14:35:00.282Z,12.40
2023-01-23T14:37:28.323Z,12.40
2023-01-23T14:39:58.196Z,12.40
2023-01-23T14:42:30.368Z,12.30
2023-01-23T14:45:00.789Z,12.40
2023-01-23T14:47:42.502Z,12.30
2023-01-23T14:50:16.070Z,12.30
2023-01-23T14:52:43.062Z,12.20
2023-01-23T14:55:29.799Z,12.30
2023-01-23T14:58:01.035Z,12.30
2023-01-23T15:00:29.359Z,12.30
2023-01-23T15:02:56.706Z,12.50
2023-01-23T15:05:27.226Z,12.50
2023-01-23T15:08:04.223Z,12.50
2023-01-23T15:10:35.076Z,12.50
2023-01-23T15:13:11.750Z,12.40
2023-01-23T15:15:44.437Z,12.30
2023-01-23T15:18:23.715Z,12.30
2023-01-23T15:20:56.819Z,12.20
2023-01-23T15:24:00.448Z,12.20
2023-01-23T15:26:38.933Z,12.30
2023-01-23T15:29:08.701Z,12.20
2023-01-23T15:31:45.207Z,12.30
2023-01-23T15:34:15.189Z,12.20
2023-01-23T15:36:53.309Z,12.30
2023-01-23T15:39:32.289Z,12.30
2023-01-23T15:42:14.657Z,12.40
2023-01-23T15:44:43.205Z,12.40
2023-01-23T15:47:10.910Z,12.60
2023-01-23T15:49:39.959Z,12.60
2023-01-23T15:52:25.250Z,12.60
2023-01-23T15:54:55.273Z,12.40
2023-01-23T15:57:23.040Z,12.20
2023-01-23T15:59:50.165Z,12.10
2023-01-23T16:02:30.543Z,11.90
2023-01-23T16:05:00.882Z,11.90
2023-01-23T16:07:40.495Z,11.80
2023-01-23T16:10:29.171Z,11.80
2023-01-23T16:12:58.049Z,11.90
2023-01-23T16:15:31.236Z,11.90
2023-01-23T16:17:58.756Z,12.10
2023-01-23T16:20:31.947Z,12.10
2023-01-23T16:23:11.636Z,12.10
2023-01-23T16:25:44.656Z,12.00
2023-01-23T16:28:18.749Z,11.90
2023-01-23T16:30:47.702Z,11.60
2023-01-23T16:33:15.104Z,11.60
2023-01-23T16:35:42.375Z,11.90
2023-01-23T16:38:27.882Z,12.10
2023-01-23T16:40:56.815Z,12.00
2023-01-23T16:43:23.908Z,11.90
2023-01-23T16:45:53.627Z,11.90
2023-01-23T16:48:27.738Z,12.00
2023-01-23T16:51:22.032Z,12.10
2023-01-23T16:53:55.569Z,12.10
2023-01-23T16:56:30.000Z,12.20
2023-01-23T16:58:57.776Z,12.30
2023-01-23T17:01:24.896Z,12.40
2023-01-23T17:03:58.783Z,12.50
2023-01-23T17:06:26.452Z,12.40
2023-01-23T17:08:53.727Z,12.40
2023-01-23T17:11:26.663Z,12.50
2023-01-23T17:13:58.629Z,12.50
2023-01-23T17:16:27.858Z,12.40
2023-01-23T17:18:58.870Z,12.50
2023-01-23T17:21:30.882Z,12.50
2023-01-23T17:23:57.893Z,12.70
2023-01-23T17:26:24.949Z,12.80
2023-01-23T17:28:52.041Z,12.90
2023-01-23T17:31:29.257Z,13.00
2023-01-23T17:33:56.736Z,13.00
2023-01-23T17:36:26.316Z,13.00
2023-01-23T17:38:57.624Z,13.00
2023-01-23T17:41:24.801Z,12.60
2023-01-23T17:43:52.707Z,12.70
2023-01-23T17:46:28.007Z,12.60
2023-01-23T17:48:56.358Z,12.50
2023-01-23T17:51:25.075Z,12.50
2023-01-23T17:53:52.796Z,12.60
2023-01-23T17:56:19.744Z,12.30
2023-01-23T17:58:46.804Z,12.20
2023-01-23T18:01:18.660Z,12.20
2023-01-23T18:03:46.482Z,12.00
2023-01-23T18:06:13.535Z,11.90
2023-01-23T18:08:42.285Z,11.80
2023-01-23T18:11:21.892Z,11.70
2023-01-23T18:13:53.325Z,11.70
2023-01-23T18:16:25.209Z,11.80
2023-01-23T18:19:00.403Z,11.90
2023-01-23T18:21:28.460Z,11.90
2023-01-23T18:23:56.056Z,12.00
2023-01-23T18:26:44.790Z,11.40
2023-01-23T18:29:19.006Z,10.70
2023-01-23T18:32:18.924Z,10.10
2023-01-23T18:35:20.932Z,9.80
2023-01-23T18:38:20.979Z,9.60
2023-01-23T18:41:10.854Z,9.80
2023-01-23T18:43:43.803Z,10.40
2023-01-23T18:46:18.990Z,10.80
2023-01-23T18:48:49.487Z,11.10
2023-01-23T18:51:32.715Z,11.30
2023-01-23T18:54:22.818Z,11.40
2023-01-23T18:56:57.904Z,11.60
2023-01-23T18:59:51.800Z,11.60
2023-01-23T19:02:42.116Z,11.60
2023-01-23T19:05:21.319Z,11.70
2023-01-23T19:07:53.583Z,11.70
2023-01-23T19:10:32.489Z,11.80
2023-01-23T19:13:07.775Z,11.90
2023-01-23T19:15:44.254Z,11.80
2023-01-23T19:18:40.415Z,11.90
2023-01-23T19:21:20.469Z,11.90
2023-01-23T19:24:04.308Z,11.90
2023-01-23T19:26:39.948Z,11.90
2023-01-23T19:29:21.573Z,11.90
2023-01-23T19:32:03.514Z,12.00
2023-01-23T19:34:32.134Z,11.90
2023-01-23T19:36:59.182Z,11.90
2023-01-23T19:39:26.160Z,11.90
2023-01-23T19:41:53.418Z,11.90
2023-01-23T19:44:24.170Z,11.80
2023-01-23T19:46:52.310Z,11.80
2023-01-23T19:49:19.835Z,11.80
2023-01-23T19:51:47.165Z,11.70
2023-01-23T19:54:15.323Z,11.70
2023-01-23T19:56:42.751Z,11.70
2023-01-23T19:59:10.567Z,11.70
2023-01-23T20:01:40.184Z,11.70
2023-01-23T20:04:27.452Z,11.70
2023-01-23T20:06:54.628Z,11.80
2023-01-23T20:09:22.299Z,11.80
2023-01-23T20:11:49.812Z,11.90
2023-01-23T20:14:16.880Z,12.00
2023-01-23T20:16:44.386Z,11.90
2023-01-23T20:19:14.389Z,11.50
2023-01-23T20:21:41.387Z,11.40
2023-01-23T20:24:08.590Z,11.30
2023-01-23T20:26:36.165Z,11.20
2023-01-23T20:29:04.066Z,11.40
2023-01-23T20:31:32.965Z,11.50
2023-01-23T20:34:00.280Z,11.50
2023-01-23T20:36:27.979Z,11.50
2023-01-23T20:38:56.874Z,11.60
2023-01-23T20:41:24.252Z,11.70
2023-01-23T20:43:51.292Z,11.70
2023-01-23T20:46:19.446Z,11.40
2023-01-23T20:48:47.283Z,11.50
2023-01-23T20:51:17.626Z,11.60
2023-01-23T20:53:45.651Z,11.50
2023-01-23T20:56:15.376Z,11.30
2023-01-23T20:59:06.358Z,11.20
2023-01-23T21:01:54.813Z,11.20
2023-01-23T21:04:23.380Z,11.20
2023-01-23T21:06:52.708Z,11.00
2023-01-23T21:09:19.790Z,10.70
2023-01-23T21:11:49.265Z,10.80
2023-01-23T21:14:16.232Z,10.90
2023-01-23T21:16:43.871Z,11.00
2023-01-23T21:19:10.971Z,10.90
2023-01-23T21:21:38.337Z,10.80
2023-01-23T21:24:06.423Z,10.70
2023-01-23T21:26:35.014Z,10.90
2023-01-23T21:29:02.181Z,11.00
2023-01-23T21:31:35.740Z,11.10
2023-01-23T21:34:04.632Z,11.30
2023-01-23T21:36:32.139Z,11.40
2023-01-23T21:38:59.306Z,11.60
2023-01-23T21:41:26.355Z,11.50
2023-01-23T21:43:53.545Z,11.70
2023-01-23T21:46:20.702Z,11.80
2023-01-23T21:48:47.705Z,12.00
2023-01-23T21:51:17.343Z,11.90
2023-01-23T21:53:45.973Z,11.90
2023-01-23T21:56:15.084Z,12.00
2023-01-23T21:58:45.035Z,12.10
2023-01-23T22:01:35.389Z,12.20
2023-01-23T22:04:09.396Z,12.30
2023-01-23T22:06:38.175Z,12.30
2023-01-23T22:09:06.181Z,12.30
2023-01-23T22:11:33.463Z,12.30
2023-01-23T22:14:00.996Z,12.30
2023-01-23T22:16:46.969Z,12.30
2023-01-23T22:19:16.642Z,12.30
2023-01-23T22:21:44.358Z,12.20
2023-01-23T22:24:11.625Z,12.20
2023-01-23T22:26:38.810Z,12.30
2023-01-23T22:29:05.772Z,12.20
2023-01-23T22:31:32.835Z,12.20
2023-01-23T22:33:59.893Z,12.20
2023-01-23T22:36:26.893Z,12.20
2023-01-23T22:38:55.245Z,12.20
2023-01-23T22:41:23.266Z,12.20
2023-01-23T22:43:54.517Z,12.10
2023-01-23T22:46:22.410Z,12.10
2023-01-23T22:48:49.868Z,12.20
2023-01-23T22:51:24.506Z,12.30
2023-01-23T22:53:53.279Z,12.30
2023-01-23T22:56:20.655Z,12.30
2023-01-23T22:58:49.488Z,12.20
2023-01-23T23:01:17.672Z,12.20
2023-01-23T23:03:45.429Z,12.10
2023-01-23T23:06:14.531Z,12.10
2023-01-23T23:08:41.882Z,12.10
2023-01-23T23:11:08.810Z,12.20
2023-01-23T23:13:38.281Z,12.10
2023-01-23T23:16:20.833Z,12.30
2023-01-23T23:18:49.914Z,12.30
2023-01-23T23:21:19.748Z,11.90
2023-01-23T23:23:47.601Z,12.10
2023-01-23T23:26:14.789Z,12.10
2023-01-23T23:28:41.842Z,12.20
2023-01-23T23:31:09.802Z,12.20
2023-01-23T23:33:36.909Z,12.20
2023-01-23T23:36:04.354Z,12.30
2023-01-23T23:38:31.275Z,12.30
2023-01-23T23:41:07.127Z,12.40
2023-01-23T23:43:34.611Z,12.40
2023-01-23T23:46:05.121Z,12.30
2023-01-23T23:48:34.146Z,12.30
2023-01-23T23:51:02.602Z,12.20
2023-01-23T23:53:30.629Z,12.20
2023-01-23T23:55:57.600Z,12.20
2023-01-23T23:58:25.067Z,12.30
